createdAt,value
2023-03-12T00:01:33.393Z,59.70
2023-03-12T00:04:02.877Z,59.28
2023-03-12T00:06:30.693Z,59.96
2023-03-12T00:08:58.916Z,60.08
2023-03-12T00:11:26.598Z,60.50
2023-03-12T00:13:57.619Z,60.84
2023-03-12T00:16:26.231Z,59.73
2023-03-12T00:18:57.092Z,60.12
2023-03-12T00:21:25.638Z,59.90
2023-03-12T00:23:54.105Z,59.46
2023-03-12T00:26:23.032Z,59.17
2023-03-12T00:28:51.571Z,59.31
2023-03-12T00:31:23.137Z,58.95
2023-03-12T00:33:51.151Z,58.92
2023-03-12T00:36:19.757Z,58.47
2023-03-12T00:38:47.615Z,57.92
2023-03-12T00:41:15.286Z,58.26
2023-03-12T00:43:43.036Z,58.15
2023-03-12T00:46:10.834Z,58.37
2023-03-12T00:48:39.952Z,57.95
2023-03-12T00:51:07.947Z,58.32
2023-03-12T00:53:35.922Z,58.10
2023-03-12T00:56:04.260Z,57.76
2023-03-12T00:58:32.620Z,57.72
2023-03-12T01:01:00.687Z,57.58
2023-03-12T01:03:28.854Z,57.90
2023-03-12T01:05:57.887Z,57.55
2023-03-12T01:08:25.586Z,57.75
2023-03-12T01:10:53.547Z,57.40
2023-03-12T01:13:21.551Z,57.33
2023-03-12T01:15:49.397Z,57.16
2023-03-12T01:18:17.082Z,57.10
2023-03-12T01:20:45.034Z,56.79
2023-03-12T01:23:14.288Z,56.68
2023-03-12T01:25:47.407Z,56.96
2023-03-12T01:28:15.164Z,56.40
2023-03-12T01:30:42.832Z,56.77
2023-03-12T01:33:10.719Z,56.55
2023-03-12T01:35:39.533Z,56.28
2023-03-12T01:38:07.497Z,56.09
2023-03-12T01:40:38.009Z,56.35
2023-03-12T01:43:24.924Z,55.99
2023-03-12T01:46:29.953Z,55.62
2023-03-12T01:49:02.809Z,55.83
2023-03-12T01:51:34.776Z,55.51
2023-03-12T01:54:06.903Z,55.89
2023-03-12T01:56:37.674Z,55.78
2023-03-12T01:59:11.862Z,55.57
2023-03-12T02:01:41.599Z,55.39
2023-03-12T02:04:09.319Z,55.80
2023-03-12T02:06:43.780Z,55.44
2023-03-12T02:09:12.599Z,55.40
2023-03-12T02:11:41.747Z,55.39
2023-03-12T02:14:10.138Z,55.24
2023-03-12T02:16:38.002Z,55.54
2023-03-12T02:19:14.231Z,55.32
2023-03-12T02:21:42.194Z,55.78
2023-03-12T02:24:19.413Z,55.58
2023-03-12T02:26:49.739Z,55.44
2023-03-12T02:29:18.273Z,55.34
2023-03-12T02:31:51.352Z,55.77
2023-03-12T02:34:19.151Z,55.63
2023-03-12T02:36:46.872Z,55.19
2023-03-12T02:39:14.626Z,55.69
2023-03-12T02:41:45.721Z,55.65
2023-03-12T02:44:19.207Z,55.66
2023-03-12T02:46:50.082Z,56.06
2023-03-12T02:49:19.474Z,55.97
2023-03-12T02:51:48.476Z,55.82
2023-03-12T02:54:18.614Z,56.20
2023-03-12T02:56:46.720Z,56.47
2023-03-12T02:59:17.881Z,56.33
2023-03-12T03:01:45.730Z,56.41
2023-03-12T03:04:13.912Z,56.95
2023-03-12T03:06:44.956Z,56.40
2023-03-12T03:09:12.739Z,56.93
2023-03-12T03:11:40.948Z,56.95
2023-03-12T03:14:08.699Z,57.11
2023-03-12T03:16:38.203Z,57.21
2023-03-12T03:19:06.767Z,56.75
2023-03-12T03:21:34.980Z,56.91
2023-03-12T03:24:02.733Z,57.30
2023-03-12T03:26:30.841Z,57.40
2023-03-12T03:28:58.494Z,57.78
2023-03-12T03:31:26.209Z,57.48
2023-03-12T03:33:55.385Z,57.14
2023-03-12T03:36:23.267Z,57.68
2023-03-12T03:38:51.126Z,57.11
2023-03-12T03:41:19.716Z,57.10
2023-03-12T03:43:48.188Z,57.35
2023-03-12T03:46:16.939Z,57.56
2023-03-12T03:48:44.733Z,57.50
2023-03-12T03:51:13.792Z,57.31
2023-03-12T03:53:41.495Z,57.53
2023-03-12T03:56:10.625Z,57.32
2023-03-12T03:58:38.851Z,56.99
2023-03-12T04:01:07.116Z,57.75
2023-03-12T04:03:35.152Z,57.38
2023-03-12T04:06:06.022Z,57.41
2023-03-12T04:08:37.121Z,57.11
2023-03-12T04:11:08.850Z,57.04
2023-03-12T04:13:36.844Z,57.05
2023-03-12T04:16:05.046Z,57.47
2023-03-12T04:18:33.233Z,57.03
2023-03-12T04:21:00.926Z,57.54
2023-03-12T04:23:28.782Z,57.31
2023-03-12T04:25:57.861Z,56.94
2023-03-12T04:28:25.633Z,57.16
2023-03-12T04:30:59.410Z,56.76
2023-03-12T04:33:27.250Z,57.04
2023-03-12T04:35:55.125Z,57.27
2023-03-12T04:38:24.807Z,57.59
2023-03-12T04:41:00.778Z,57.67
2023-03-12T04:43:29.137Z,57.20
2023-03-12T04:45:57.654Z,57.07
2023-03-12T04:48:25.953Z,56.81
2023-03-12T04:50:53.782Z,56.97
2023-03-12T04:53:21.616Z,56.89
2023-03-12T04:55:49.338Z,56.51
2023-03-12T04:58:18.610Z,56.70
2023-03-12T05:00:46.853Z,57.01
2023-03-12T05:03:14.578Z,57.04
2023-03-12T05:05:42.415Z,56.96
2023-03-12T05:08:10.169Z,56.96
2023-03-12T05:10:37.990Z,57.21
2023-03-12T05:13:05.649Z,57.11
2023-03-12T05:15:38.013Z,57.22
2023-03-12T05:18:05.758Z,57.27
2023-03-12T05:20:33.447Z,57.54
2023-03-12T05:23:01.109Z,57.24
2023-03-12T05:25:28.832Z,57.44
2023-03-12T05:27:56.733Z,57.51
2023-03-12T05:30:24.659Z,57.80
2023-03-12T05:32:53.722Z,57.72
2023-03-12T05:35:21.453Z,57.79
2023-03-12T05:37:49.225Z,58.02
2023-03-12T05:40:17.086Z,58.08
2023-03-12T05:42:44.728Z,58.42
2023-03-12T05:45:12.658Z,58.31
2023-03-12T05:47:40.354Z,58.80
2023-03-12T05:50:11.390Z,58.69
2023-03-12T05:52:39.177Z,58.97
2023-03-12T05:55:08.575Z,59.73
2023-03-12T05:57:36.328Z,59.85
2023-03-12T06:00:05.125Z,60.61
2023-03-12T06:02:32.874Z,61.09
2023-03-12T06:05:00.717Z,61.03
2023-03-12T06:07:29.718Z,60.80
2023-03-12T06:09:57.455Z,61.55
2023-03-12T06:12:25.138Z,61.49
2023-03-12T06:14:52.756Z,61.64
2023-03-12T06:17:20.431Z,62.04
2023-03-12T06:19:51.810Z,62.28
2023-03-12T06:22:19.621Z,62.54
2023-03-12T06:24:48.693Z,63.01
2023-03-12T06:27:16.809Z,62.84
2023-03-12T06:29:46.373Z,63.24
2023-03-12T06:32:14.130Z,63.18
2023-03-12T06:34:42.028Z,63.52
2023-03-12T06:37:09.743Z,64.22
2023-03-12T06:39:37.788Z,64.29
2023-03-12T06:42:07.123Z,64.38
2023-03-12T06:44:34.911Z,64.45
2023-03-12T06:47:02.646Z,64.68
2023-03-12T06:49:33.206Z,64.94
2023-03-12T06:52:00.964Z,65.36
2023-03-12T06:54:28.732Z,65.46
2023-03-12T06:56:56.447Z,65.19
2023-03-12T06:59:25.660Z,65.45
2023-03-12T07:01:53.772Z,66.57
2023-03-12T07:04:21.819Z,66.49
2023-03-12T07:06:51.262Z,66.70
2023-03-12T07:09:19.390Z,67.43
2023-03-12T07:11:47.256Z,67.84
2023-03-12T07:14:15.090Z,68.07
2023-03-12T07:16:44.266Z,68.89
2023-03-12T07:19:11.988Z,69.39
2023-03-12T07:21:39.738Z,69.79
2023-03-12T07:24:08.832Z,70.30
2023-03-12T07:26:36.869Z,70.71
2023-03-12T07:29:05.249Z,71.07
2023-03-12T07:31:33.045Z,70.99
2023-03-12T07:34:03.083Z,71.49
2023-03-12T07:36:30.961Z,71.89
2023-03-12T07:38:58.867Z,72.68
2023-03-12T07:41:26.678Z,72.69
2023-03-12T07:43:54.408Z,73.15
2023-03-12T07:46:22.147Z,73.37
2023-03-12T07:48:49.988Z,73.46
2023-03-12T07:51:19.052Z,73.41
2023-03-12T07:53:46.815Z,73.61
2023-03-12T07:56:14.705Z,73.68
2023-03-12T07:58:42.618Z,73.21
2023-03-12T08:01:10.520Z,73.59
2023-03-12T08:03:39.054Z,73.83
2023-03-12T08:06:31.931Z,74.27
2023-03-12T08:08:59.720Z,74.12
2023-03-12T08:11:29.674Z,74.34
2023-03-12T08:13:57.476Z,74.91
2023-03-12T08:16:25.337Z,74.81
2023-03-12T08:18:53.115Z,75.10
2023-03-12T08:21:20.983Z,74.98
2023-03-12T08:23:50.052Z,74.75
2023-03-12T08:26:17.873Z,74.71
2023-03-12T08:28:45.904Z,74.29
2023-03-12T08:31:16.738Z,74.43
2023-03-12T08:33:44.586Z,74.59
2023-03-12T08:36:12.351Z,74.60
2023-03-12T08:38:40.129Z,74.85
2023-03-12T08:41:10.286Z,74.79
2023-03-12T08:43:37.993Z,74.76
2023-03-12T08:46:06.143Z,75.63
2023-03-12T08:48:34.591Z,75.88
2023-03-12T08:51:04.338Z,76.27
2023-03-12T08:53:33.274Z,76.57
2023-03-12T08:56:01.197Z,76.35
2023-03-12T08:58:31.364Z,77.05
2023-03-12T09:00:59.332Z,77.64
2023-03-12T09:03:27.304Z,78.69
2023-03-12T09:06:04.973Z,78.87
2023-03-12T09:08:34.042Z,79.78
2023-03-12T09:11:02.728Z,80.00
2023-03-12T09:13:50.753Z,80.80
2023-03-12T09:16:20.049Z,81.48
2023-03-12T09:18:47.785Z,81.72
2023-03-12T09:21:15.528Z,82.67
2023-03-12T09:23:43.429Z,82.71
2023-03-12T09:26:11.454Z,82.28
2023-03-12T09:28:40.751Z,82.54
2023-03-12T09:31:08.577Z,83.14
2023-03-12T09:33:36.381Z,83.93
2023-03-12T09:36:04.786Z,83.82
2023-03-12T09:38:35.336Z,84.01
2023-03-12T09:41:05.582Z,84.39
2023-03-12T09:43:38.809Z,84.71
2023-03-12T09:46:14.826Z,85.19
2023-03-12T09:48:44.721Z,85.70
2023-03-12T09:51:21.262Z,86.03
2023-03-12T09:53:52.704Z,86.82
2023-03-12T09:56:22.943Z,87.32
2023-03-12T09:58:54.613Z,87.44
2023-03-12T10:01:36.498Z,87.77
2023-03-12T10:04:25.763Z,88.60
2023-03-12T10:07:00.318Z,88.57
2023-03-12T10:09:41.633Z,89.00
2023-03-12T10:12:19.644Z,89.40
2023-03-12T10:15:03.730Z,89.37
2023-03-12T10:17:44.995Z,89.87
2023-03-12T10:20:41.676Z,89.81
2023-03-12T10:23:14.363Z,90.12
2023-03-12T10:25:48.294Z,90.42
2023-03-12T10:28:19.586Z,90.26
2023-03-12T10:30:51.531Z,90.46
2023-03-12T10:33:22.352Z,90.12
2023-03-12T10:35:52.208Z,90.00
2023-03-12T10:38:26.900Z,90.64
2023-03-12T10:40:54.651Z,90.96
2023-03-12T10:43:22.727Z,90.27
2023-03-12T10:46:03.151Z,90.31
2023-03-12T10:48:32.493Z,91.11
2023-03-12T10:51:05.780Z,91.66
2023-03-12T10:53:35.539Z,91.35
2023-03-12T10:56:06.956Z,91.37
2023-03-12T10:58:37.896Z,91.91
2023-03-12T11:01:21.840Z,92.02
2023-03-12T11:03:52.041Z,92.28
2023-03-12T11:06:27.466Z,91.96
2023-03-12T11:09:18.366Z,92.17
2023-03-12T11:11:48.405Z,92.52
2023-03-12T11:14:20.076Z,92.37
2023-03-12T11:16:48.079Z,92.11
2023-03-12T11:19:29.157Z,92.65
2023-03-12T11:21:58.974Z,92.85
2023-03-12T11:24:27.198Z,92.85
2023-03-12T11:27:03.167Z,93.42
2023-03-12T11:29:33.400Z,92.82
2023-03-12T11:32:07.227Z,93.21
2023-03-12T11:34:39.428Z,93.51
2023-03-12T11:37:16.177Z,93.68
2023-03-12T11:40:00.154Z,93.30
2023-03-12T11:42:41.320Z,93.28
2023-03-12T11:45:18.697Z,93.46
2023-03-12T11:47:58.352Z,93.64
2023-03-12T11:50:33.730Z,93.63
2023-03-12T11:53:18.441Z,93.23
2023-03-12T11:55:57.000Z,92.65
2023-03-12T11:58:40.795Z,92.39
2023-03-12T12:01:14.074Z,92.63
2023-03-12T12:04:21.426Z,93.08
2023-03-12T12:07:01.762Z,92.85
2023-03-12T12:09:38.202Z,93.29
2023-03-12T12:12:22.465Z,93.60
2023-03-12T12:15:04.810Z,93.61
2023-03-12T12:17:43.093Z,93.85
2023-03-12T12:20:21.592Z,93.07
2023-03-12T12:23:05.637Z,93.27
2023-03-12T12:25:47.423Z,92.93
2023-03-12T12:28:28.677Z,92.94
2023-03-12T12:31:09.239Z,93.78
2023-03-12T12:33:52.873Z,93.36
2023-03-12T12:36:20.789Z,93.96
2023-03-12T12:38:56.852Z,93.67
2023-03-12T12:41:26.417Z,94.01
2023-03-12T12:43:57.795Z,93.89
2023-03-12T12:46:29.201Z,94.43
2023-03-12T12:49:02.164Z,94.02
2023-03-12T12:51:33.970Z,93.90
2023-03-12T12:54:09.670Z,93.90
2023-03-12T12:56:44.870Z,93.93
2023-03-12T12:59:27.489Z,93.77
2023-03-12T13:01:58.566Z,93.98
2023-03-12T13:04:29.642Z,94.57
2023-03-12T13:07:01.406Z,94.93
2023-03-12T13:09:43.499Z,93.32
2023-03-12T13:12:19.232Z,92.95
2023-03-12T13:14:48.205Z,92.20
2023-03-12T13:17:31.209Z,92.32
2023-03-12T13:20:10.793Z,91.36
2023-03-12T13:23:10.303Z,91.33
2023-03-12T13:25:53.340Z,90.88
2023-03-12T13:28:35.840Z,90.35
2023-03-12T13:31:29.004Z,90.22
2023-03-12T13:33:59.405Z,89.52
2023-03-12T13:36:29.121Z,89.10
2023-03-12T13:39:01.774Z,88.50
2023-03-12T13:41:39.059Z,88.06
2023-03-12T13:44:30.249Z,87.75
2023-03-12T13:47:03.047Z,87.52
2023-03-12T13:49:38.449Z,86.98
2023-03-12T13:52:22.129Z,87.21
2023-03-12T13:54:59.558Z,86.75
2023-03-12T13:57:38.760Z,85.91
2023-03-12T14:00:16.440Z,85.21
2023-03-12T14:02:49.988Z,85.04
2023-03-12T14:05:19.671Z,84.70
2023-03-12T14:08:06.909Z,84.19
2023-03-12T14:10:46.756Z,84.26
2023-03-12T14:13:29.841Z,84.12
2023-03-12T14:16:06.841Z,83.73
2023-03-12T14:18:36.866Z,83.47
2023-03-12T14:21:11.565Z,82.91
2023-03-12T14:23:45.509Z,82.45
2023-03-12T14:26:24.523Z,82.91
2023-03-12T14:29:00.751Z,82.10
2023-03-12T14:31:33.684Z,82.76
2023-03-12T14:34:07.031Z,82.99
2023-03-12T14:36:40.790Z,82.99
2023-03-12T14:39:23.263Z,82.89
2023-03-12T14:41:56.840Z,82.92
2023-03-12T14:44:28.090Z,82.83
2023-03-12T14:47:01.271Z,82.78
2023-03-12T14:49:30.244Z,82.30
2023-03-12T14:51:59.870Z,82.09
2023-03-12T14:54:31.785Z,82.12
2023-03-12T14:56:59.534Z,81.81
2023-03-12T14:59:33.149Z,81.48
2023-03-12T15:02:05.239Z,81.21
2023-03-12T15:04:35.848Z,80.90
2023-03-12T15:07:07.830Z,80.67
2023-03-12T15:09:37.465Z,80.48
2023-03-12T15:12:07.849Z,79.68
2023-03-12T15:14:42.394Z,79.13
2023-03-12T15:17:16.589Z,77.88
2023-03-12T15:19:45.352Z,77.77
2023-03-12T15:22:16.943Z,77.60
2023-03-12T15:24:45.121Z,76.93
2023-03-12T15:27:21.926Z,76.55
2023-03-12T15:29:51.121Z,76.01
2023-03-12T15:32:21.554Z,76.12
2023-03-12T15:34:49.867Z,75.63
2023-03-12T15:37:24.850Z,76.05
2023-03-12T15:39:54.368Z,76.70
2023-03-12T15:42:25.354Z,76.76
2023-03-12T15:44:57.189Z,76.39
2023-03-12T15:47:27.781Z,76.24
2023-03-12T15:49:58.919Z,76.96
2023-03-12T15:52:32.504Z,76.44
2023-03-12T15:55:07.389Z,75.85
2023-03-12T15:57:41.752Z,75.04
2023-03-12T16:00:33.067Z,75.11
2023-03-12T16:03:04.008Z,74.44
2023-03-12T16:05:33.392Z,73.79
2023-03-12T16:08:03.641Z,73.84
2023-03-12T16:10:36.035Z,73.33
2023-03-12T16:13:04.869Z,72.89
2023-03-12T16:15:38.504Z,73.04
2023-03-12T16:18:06.401Z,72.53
2023-03-12T16:20:34.158Z,72.63
2023-03-12T16:23:02.186Z,73.02
2023-03-12T16:25:29.996Z,72.78
2023-03-12T16:28:02.727Z,72.84
2023-03-12T16:30:32.915Z,72.65
2023-03-12T16:33:06.080Z,72.65
2023-03-12T16:35:36.223Z,72.68
2023-03-12T16:38:04.131Z,72.80
2023-03-12T16:40:34.913Z,72.28
2023-03-12T16:43:04.684Z,72.21
2023-03-12T16:45:35.928Z,71.84
2023-03-12T16:48:07.396Z,71.41
2023-03-12T16:50:35.246Z,70.79
2023-03-12T16:53:03.978Z,71.17
2023-03-12T16:55:41.569Z,71.08
2023-03-12T16:58:14.173Z,70.86
2023-03-12T17:00:43.733Z,70.78
2023-03-12T17:03:20.585Z,70.71
2023-03-12T17:05:48.412Z,70.65
2023-03-12T17:08:16.919Z,70.26
2023-03-12T17:10:44.879Z,70.46
2023-03-12T17:13:20.600Z,70.05
2023-03-12T17:15:49.333Z,70.01
2023-03-12T17:18:19.204Z,69.80
2023-03-12T17:20:47.842Z,70.15
2023-03-12T17:23:15.932Z,69.91
2023-03-12T17:25:45.371Z,70.12
2023-03-12T17:28:15.368Z,69.91
2023-03-12T17:30:44.088Z,69.99
2023-03-12T17:33:14.003Z,70.09
2023-03-12T17:35:44.222Z,70.14
2023-03-12T17:38:12.953Z,70.13
2023-03-12T17:40:41.778Z,70.50
2023-03-12T17:43:09.857Z,70.68
2023-03-12T17:45:37.885Z,70.18
2023-03-12T17:48:05.822Z,70.70
2023-03-12T17:50:33.557Z,70.74
2023-03-12T17:53:02.949Z,70.02
2023-03-12T17:55:30.802Z,70.32
2023-03-12T17:57:58.585Z,70.68
2023-03-12T18:00:26.345Z,70.41
2023-03-12T18:02:54.163Z,70.67
2023-03-12T18:05:22.627Z,70.79
2023-03-12T18:07:52.272Z,70.71
2023-03-12T18:10:21.723Z,70.88
2023-03-12T18:12:49.643Z,71.46
2023-03-12T18:15:18.037Z,71.57
2023-03-12T18:17:46.061Z,71.33
2023-03-12T18:20:25.840Z,71.17
2023-03-12T18:23:00.091Z,71.80
2023-03-12T18:25:29.200Z,71.86
2023-03-12T18:27:56.936Z,71.50
2023-03-12T18:30:24.686Z,71.47
2023-03-12T18:32:52.464Z,71.60
2023-03-12T18:35:20.275Z,71.75
2023-03-12T18:37:48.015Z,71.93
2023-03-12T18:40:15.856Z,71.83
2023-03-12T18:42:44.950Z,71.85
2023-03-12T18:45:13.239Z,71.86
2023-03-12T18:47:41.987Z,71.54
2023-03-12T18:50:11.232Z,71.83
2023-03-12T18:52:39.304Z,71.68
2023-03-12T18:55:07.706Z,72.02
2023-03-12T18:57:35.521Z,71.95
2023-03-12T19:00:06.358Z,71.96
2023-03-12T19:02:34.124Z,71.68
2023-03-12T19:05:04.120Z,72.01
2023-03-12T19:07:32.191Z,72.04
2023-03-12T19:10:00.411Z,71.72
2023-03-12T19:12:30.402Z,71.99
2023-03-12T19:14:59.589Z,71.91
2023-03-12T19:17:29.364Z,71.84
2023-03-12T19:19:57.836Z,72.07
2023-03-12T19:22:25.564Z,72.03
2023-03-12T19:24:54.043Z,72.17
2023-03-12T19:27:21.877Z,71.74
2023-03-12T19:29:49.633Z,72.02
2023-03-12T19:32:17.455Z,72.04
2023-03-12T19:34:50.128Z,71.90
2023-03-12T19:37:19.708Z,72.04
2023-03-12T19:39:47.466Z,71.86
2023-03-12T19:42:15.280Z,72.20
2023-03-12T19:44:43.209Z,72.24
2023-03-12T19:47:11.123Z,72.23
2023-03-12T19:49:38.839Z,72.11
2023-03-12T19:52:07.989Z,72.43
2023-03-12T19:54:35.837Z,72.38
2023-03-12T19:57:03.720Z,72.47
2023-03-12T19:59:31.521Z,72.52
2023-03-12T20:02:01.607Z,72.91
2023-03-12T20:04:30.237Z,72.44
2023-03-12T20:06:57.970Z,72.29
2023-03-12T20:09:27.205Z,72.64
2023-03-12T20:11:55.014Z,72.75
2023-03-12T20:14:25.919Z,73.13
2023-03-12T20:16:54.034Z,72.74
2023-03-12T20:19:21.781Z,73.00
2023-03-12T20:21:50.402Z,73.06
2023-03-12T20:24:18.164Z,72.76
2023-03-12T20:26:47.542Z,72.76
2023-03-12T20:29:15.336Z,72.96
2023-03-12T20:31:44.340Z,72.65
2023-03-12T20:34:12.194Z,72.70
2023-03-12T20:36:39.908Z,72.91
2023-03-12T20:39:07.714Z,73.14
2023-03-12T20:41:35.575Z,73.21
2023-03-12T20:44:04.679Z,72.98
2023-03-12T20:46:32.368Z,73.56
2023-03-12T20:49:00.132Z,73.57
2023-03-12T20:51:27.878Z,73.61
2023-03-12T20:53:55.626Z,73.87
2023-03-12T20:56:23.684Z,73.84
2023-03-12T20:58:52.158Z,73.70
2023-03-12T21:01:24.373Z,74.25
2023-03-12T21:03:52.232Z,74.05
2023-03-12T21:06:20.021Z,73.96
2023-03-12T21:08:50.622Z,73.71
2023-03-12T21:11:18.562Z,74.10
2023-03-12T21:13:46.310Z,73.93
2023-03-12T21:16:14.016Z,74.19
2023-03-12T21:18:45.887Z,74.22
2023-03-12T21:21:13.755Z,74.30
2023-03-12T21:23:41.571Z,74.28
2023-03-12T21:26:10.116Z,74.69
2023-03-12T21:28:37.843Z,74.14
2023-03-12T21:31:07.367Z,74.31
2023-03-12T21:33:35.286Z,74.29
2023-03-12T21:36:13.890Z,74.32
2023-03-12T21:38:42.895Z,74.15
2023-03-12T21:41:12.543Z,74.24
2023-03-12T21:43:41.242Z,74.48
2023-03-12T21:46:11.138Z,74.21
2023-03-12T21:48:39.390Z,74.05
2023-03-12T21:51:10.766Z,74.20
2023-03-12T21:53:39.156Z,73.96
2023-03-12T21:56:08.691Z,74.42
2023-03-12T21:58:37.469Z,74.40
2023-03-12T22:01:08.240Z,74.17
2023-03-12T22:03:36.764Z,73.82
2023-03-12T22:06:04.899Z,74.13
2023-03-12T22:08:34.728Z,73.99
2023-03-12T22:11:02.762Z,73.59
2023-03-12T22:13:30.469Z,73.11
2023-03-12T22:15:59.742Z,72.96
2023-03-12T22:18:28.649Z,73.19
2023-03-12T22:20:59.702Z,73.36
2023-03-12T22:23:27.388Z,73.28
2023-03-12T22:25:56.802Z,73.20
2023-03-12T22:28:25.898Z,73.41
2023-03-12T22:30:58.489Z,73.79
2023-03-12T22:33:26.090Z,73.59
2023-03-12T22:35:53.857Z,73.46
2023-03-12T22:38:21.755Z,73.26
2023-03-12T22:40:49.798Z,73.35
2023-03-12T22:43:18.852Z,73.63
2023-03-12T22:45:46.561Z,73.46
2023-03-12T22:48:14.255Z,73.27
2023-03-12T22:50:41.944Z,73.29
2023-03-12T22:53:09.879Z,73.47
2023-03-12T22:55:37.515Z,73.24
2023-03-12T22:58:05.881Z,73.44
2023-03-12T23:00:34.947Z,73.35
2023-03-12T23:03:02.765Z,73.16
2023-03-12T23:05:30.415Z,72.86
2023-03-12T23:07:58.176Z,72.88
2023-03-12T23:10:25.847Z,73.13
2023-03-12T23:12:53.568Z,73.02
2023-03-12T23:15:24.510Z,73.10
2023-03-12T23:17:58.093Z,73.09
2023-03-12T23:20:25.824Z,73.00
2023-03-12T23:22:53.544Z,73.10
2023-03-12T23:25:21.218Z,73.08
2023-03-12T23:27:48.940Z,73.10
2023-03-12T23:30:16.747Z,73.36
2023-03-12T23:32:44.561Z,73.48
2023-03-12T23:35:13.672Z,73.37
2023-03-12T23:37:41.469Z,73.45
2023-03-12T23:40:11.158Z,73.25
2023-03-12T23:42:38.859Z,73.41
2023-03-12T23:45:07.974Z,73.39
2023-03-12T23:47:35.679Z,73.68
2023-03-12T23:50:03.652Z,73.78
2023-03-12T23:52:32.770Z,73.73
2023-03-12T23:55:00.431Z,73.78
2023-03-12T23:57:28.692Z,74.03
2023-03-12T23:59:56.386Z,74.04
